Time;durP1;ratioP1;P1;durP2;ratioP2;P2;SDS_P1;SDS_P2;PMS_P1;PMS_P2;Temp;Humidity;BMP_temperature;BMP_pressure;BME280_temperature;BME280_humidity;BME280_pressure;Samples;Min_cycle;Max_cycle;Signal;HPM_P1;HPM_P2
2023/08/27 00:04:36;;;;;;;2.42;1.38;;;;;;;;;;9933831;29;20047;-76
2023/08/27 00:09:39;;;;;;;4.37;1.27;;;;;;;;;;9934981;29;20106;-76
2023/08/27 00:14:42;;;;;;;2.23;1.33;;;;;;;;;;9927584;29;20087;-76
2023/08/27 00:19:45;;;;;;;4.35;1.35;;;;;;;;;;9929532;29;20066;-77
2023/08/27 00:24:48;;;;;;;1.00;0.90;;;;;;;;;;9924738;29;20522;-77
2023/08/27 00:29:52;;;;;;;1.90;0.90;;;;;;;;;;9931829;29;20051;-77
2023/08/27 00:34:54;;;;;;;3.33;1.50;;;;;;;;;;9936066;29;20084;-77
2023/08/27 00:39:57;;;;;;;1.73;1.10;;;;;;;;;;9926323;29;20612;-77
2023/08/27 00:45:03;;;;;;;2.13;0.80;;;;;;;;;;9933829;29;20042;-77
2023/08/27 00:50:09;;;;;;;1.92;1.00;;;;;;;;;;9930666;29;20071;-77
2023/08/27 00:55:11;;;;;;;2.03;0.90;;;;;;;;;;9927234;29;20055;-78
2023/08/27 01:00:16;;;;;;;1.63;1.10;;;;;;;;;;9930982;29;20501;-78
2023/08/27 01:05:20;;;;;;;3.53;1.27;;;;;;;;;;9934788;29;20413;-77
2023/08/27 01:10:27;;;;;;;5.90;1.30;;;;;;;;;;9934442;29;20081;-78
2023/08/27 01:15:32;;;;;;;2.33;1.00;;;;;;;;;;9928379;29;20489;-77
2023/08/27 01:20:34;;;;;;;3.05;1.30;;;;;;;;;;9931453;29;20511;-77
2023/08/27 01:25:41;;;;;;;2.20;1.37;;;;;;;;;;9935548;29;20090;-76
2023/08/27 01:30:47;;;;;;;3.53;1.58;;;;;;;;;;9927224;29;20190;-77
2023/08/27 01:35:50;;;;;;;3.15;1.50;;;;;;;;;;9911925;29;20054;-76
2023/08/27 01:40:55;;;;;;;3.28;1.60;;;;;;;;;;9920337;29;20050;-77
2023/08/27 01:45:57;;;;;;;3.42;0.82;;;;;;;;;;9924496;29;20115;-77
2023/08/27 01:51:00;;;;;;;1.42;1.20;;;;;;;;;;9926314;29;20524;-77
2023/08/27 01:56:05;;;;;;;1.37;1.07;;;;;;;;;;9930304;29;20061;-77
2023/08/27 02:01:07;;;;;;;4.47;1.25;;;;;;;;;;9931275;29;20554;-76
2023/08/27 02:06:11;;;;;;;3.85;1.40;;;;;;;;;;9923245;29;20051;-76
2023/08/27 02:11:14;;;;;;;5.43;2.08;;;;;;;;;;9930428;29;20074;-77
2023/08/27 02:16:17;;;;;;;5.57;1.60;;;;;;;;;;9925509;29;20058;-77
2023/08/27 02:21:20;;;;;;;2.57;1.40;;;;;;;;;;9925493;29;20504;-77
2023/08/27 02:26:24;;;;;;;1.80;1.30;;;;;;;;;;9932797;29;20398;-77
2023/08/27 02:31:26;;;;;;;5.10;1.77;;;;;;;;;;9942126;29;20069;-77
2023/08/27 02:36:29;;;;;;;2.10;1.27;;;;;;;;;;9937011;29;20042;-77
2023/08/27 02:41:33;;;;;;;3.30;1.30;;;;;;;;;;9933306;29;20142;-77
2023/08/27 02:46:35;;;;;;;4.78;1.40;;;;;;;;;;9933158;29;20182;-77
2023/08/27 02:51:38;;;;;;;3.10;1.53;;;;;;;;;;9932388;29;20045;-76
2023/08/27 02:56:42;;;;;;;3.67;1.47;;;;;;;;;;9940760;29;20051;-77
2023/08/27 03:01:44;;;;;;;2.38;1.40;;;;;;;;;;9934408;29;20394;-77
2023/08/27 03:06:47;;;;;;;2.93;1.60;;;;;;;;;;9941604;29;20419;-76
2023/08/27 03:11:51;;;;;;;4.30;1.20;;;;;;;;;;9942270;29;20057;-77
2023/08/27 03:16:53;;;;;;;3.25;1.70;;;;;;;;;;9942222;29;20115;-78
2023/08/27 03:21:56;;;;;;;4.03;1.65;;;;;;;;;;9943606;29;20127;-77
2023/08/27 03:27:01;;;;;;;3.50;1.60;;;;;;;;;;9940452;29;20061;-77
2023/08/27 03:32:04;;;;;;;3.78;1.67;;;;;;;;;;9936374;29;20054;-77
2023/08/27 03:37:06;;;;;;;3.58;1.52;;;;;;;;;;9930835;29;20051;-77
2023/08/27 03:42:10;;;;;;;2.50;1.73;;;;;;;;;;9941961;29;20073;-78
2023/08/27 03:47:13;;;;;;;4.00;2.10;;;;;;;;;;9929154;29;20046;-77
2023/08/27 03:52:15;;;;;;;4.80;1.77;;;;;;;;;;9938721;29;20690;-77
2023/08/27 03:57:19;;;;;;;5.23;2.00;;;;;;;;;;9942450;29;20055;-78
2023/08/27 04:02:22;;;;;;;3.70;1.70;;;;;;;;;;9934549;29;20405;-77
2023/08/27 04:07:24;;;;;;;5.73;1.77;;;;;;;;;;9929692;29;20362;-78
2023/08/27 04:12:28;;;;;;;4.70;2.00;;;;;;;;;;9941789;29;20046;-78
2023/08/27 04:17:31;;;;;;;7.05;2.40;;;;;;;;;;9931216;29;20747;-76
2023/08/27 04:22:33;;;;;;;2.90;1.70;;;;;;;;;;9924106;29;20051;-77
2023/08/27 04:27:37;;;;;;;3.13;1.60;;;;;;;;;;9935687;29;20054;-78
2023/08/27 04:32:40;;;;;;;5.30;1.70;;;;;;;;;;9925543;29;20057;-77
2023/08/27 04:37:43;;;;;;;5.20;2.03;;;;;;;;;;9925429;29;20146;-77
2023/08/27 04:42:47;;;;;;;4.75;2.00;;;;;;;;;;9925930;29;20130;-78
2023/08/27 04:47:50;;;;;;;6.07;2.10;;;;;;;;;;9936386;29;20494;-77
2023/08/27 04:52:53;;;;;;;4.53;1.93;;;;;;;;;;9929931;29;20490;-77
2023/08/27 04:57:57;;;;;;;8.18;2.60;;;;;;;;;;9941924;29;20115;-77
2023/08/27 05:03:01;;;;;;;4.55;1.77;;;;;;;;;;9933691;29;20035;-78
2023/08/27 05:08:03;;;;;;;4.68;1.90;;;;;;;;;;9931769;29;20050;-77
2023/08/27 05:13:07;;;;;;;3.80;1.87;;;;;;;;;;9924995;29;20137;-77
2023/08/27 05:18:10;;;;;;;2.88;1.52;;;;;;;;;;9924555;29;20521;-77
2023/08/27 05:23:13;;;;;;;4.20;2.10;;;;;;;;;;9936129;29;20050;-77
2023/08/27 05:28:17;;;;;;;3.53;1.60;;;;;;;;;;9927631;29;20055;-78
2023/08/27 05:33:19;;;;;;;2.15;1.77;;;;;;;;;;9929326;29;20111;-77
2023/08/27 05:38:22;;;;;;;3.25;1.63;;;;;;;;;;9921211;29;20301;-77
2023/08/27 05:43:26;;;;;;;3.03;1.43;;;;;;;;;;9923220;29;20039;-76
2023/08/27 05:48:28;;;;;;;3.78;1.83;;;;;;;;;;9923891;29;20056;-77
2023/08/27 05:53:34;;;;;;;6.20;1.95;;;;;;;;;;9917114;29;20050;-77
2023/08/27 05:58:39;;;;;;;4.68;1.70;;;;;;;;;;9919616;29;20050;-78
2023/08/27 06:03:41;;;;;;;6.18;1.60;;;;;;;;;;9923344;29;20080;-77
2023/08/27 06:08:44;;;;;;;3.43;1.73;;;;;;;;;;9922456;29;20051;-79
2023/08/27 06:13:48;;;;;;;3.87;1.87;;;;;;;;;;9929977;29;20049;-78
2023/08/27 06:18:50;;;;;;;4.68;2.20;;;;;;;;;;9921530;29;20161;-78
2023/08/27 06:23:53;;;;;;;2.77;1.60;;;;;;;;;;9929984;29;20066;-78
2023/08/27 06:29:07;;;;;;;5.53;1.60;;;;;;;;;;9926559;29;20443;-78
2023/08/27 06:34:10;;;;;;;5.32;1.70;;;;;;;;;;9929997;29;20148;-79
2023/08/27 06:39:13;;;;;;;2.10;1.40;;;;;;;;;;9928646;29;20606;-78
2023/08/27 06:44:17;;;;;;;2.23;1.37;;;;;;;;;;9923112;29;20103;-78
2023/08/27 06:49:20;;;;;;;4.78;1.50;;;;;;;;;;9921216;29;20137;-78
2023/08/27 06:54:22;;;;;;;3.20;1.15;;;;;;;;;;9930835;29;20050;-77
2023/08/27 06:59:26;;;;;;;3.23;1.40;;;;;;;;;;9921500;29;20062;-77
2023/08/27 07:04:29;;;;;;;2.25;1.55;;;;;;;;;;9918211;29;20154;-83
2023/08/27 07:09:31;;;;;;;6.10;1.90;;;;;;;;;;9921843;29;20051;-83
2023/08/27 07:14:35;;;;;;;2.67;1.20;;;;;;;;;;9939288;29;20120;-83
2023/08/27 07:19:38;;;;;;;3.10;1.50;;;;;;;;;;9941054;29;20488;-86
2023/08/27 07:24:41;;;;;;;2.53;1.57;;;;;;;;;;9934596;29;20062;-85
2023/08/27 07:29:44;;;;;;;2.43;1.60;;;;;;;;;;9934660;29;20447;-82
2023/08/27 07:34:47;;;;;;;2.92;1.70;;;;;;;;;;9928661;29;20111;-85
2023/08/27 07:39:50;;;;;;;3.67;1.77;;;;;;;;;;9919819;29;20122;-84
2023/08/27 07:44:53;;;;;;;3.17;1.98;;;;;;;;;;9924910;29;20043;-79
2023/08/27 07:49:56;;;;;;;3.95;1.60;;;;;;;;;;9933378;29;20132;-80
2023/08/27 07:54:58;;;;;;;4.15;1.80;;;;;;;;;;9919761;29;20166;-80
2023/08/27 08:00:03;;;;;;;3.40;1.10;;;;;;;;;;9933078;29;20493;-80
2023/08/27 08:05:05;;;;;;;2.40;1.67;;;;;;;;;;9926890;29;20039;-80
2023/08/27 08:10:08;;;;;;;4.38;1.67;;;;;;;;;;9917300;29;20129;-80
2023/08/27 08:15:12;;;;;;;4.33;1.70;;;;;;;;;;9926190;29;20653;-80
2023/08/27 08:20:15;;;;;;;2.72;1.40;;;;;;;;;;9928543;29;20145;-79
2023/08/27 08:25:17;;;;;;;4.47;1.80;;;;;;;;;;9913459;29;20066;-80
2023/08/27 08:30:22;;;;;;;2.63;1.40;;;;;;;;;;9933678;29;20047;-80
2023/08/27 08:35:24;;;;;;;3.60;1.88;;;;;;;;;;9936787;29;20103;-81
2023/08/27 08:40:27;;;;;;;3.27;1.57;;;;;;;;;;9941021;29;20082;-80
2023/08/27 08:45:34;;;;;;;3.13;0.90;;;;;;;;;;9943040;29;20602;-79
2023/08/27 08:50:37;;;;;;;3.10;1.60;;;;;;;;;;9936367;29;20319;-80
2023/08/27 08:55:40;;;;;;;1.40;1.08;;;;;;;;;;9936684;29;20617;-80
2023/08/27 09:00:45;;;;;;;2.10;1.10;;;;;;;;;;9941486;29;20089;-81
2023/08/27 09:05:49;;;;;;;3.25;1.40;;;;;;;;;;9942379;29;20143;-80
2023/08/27 09:10:53;;;;;;;2.65;0.82;;;;;;;;;;9936261;29;20125;-80
2023/08/27 09:15:56;;;;;;;1.73;1.05;;;;;;;;;;9938061;29;20217;-79
2023/08/27 09:21:00;;;;;;;1.90;1.25;;;;;;;;;;9933891;29;20074;-80
2023/08/27 09:26:02;;;;;;;2.70;1.05;;;;;;;;;;9935441;29;20054;-80
2023/08/27 09:31:09;;;;;;;1.47;0.90;;;;;;;;;;9937584;29;20073;-81
2023/08/27 09:36:13;;;;;;;3.70;1.50;;;;;;;;;;9932613;29;20070;-80
2023/08/27 09:41:18;;;;;;;1.92;1.10;;;;;;;;;;9936948;29;20054;-80
2023/08/27 09:46:22;;;;;;;1.42;1.02;;;;;;;;;;9934837;29;20118;-81
2023/08/27 09:51:27;;;;;;;2.42;0.80;;;;;;;;;;9927509;29;20062;-81
2023/08/27 09:56:29;;;;;;;0.95;0.80;;;;;;;;;;9927310;29;20135;-80
2023/08/27 10:01:35;;;;;;;3.33;1.23;;;;;;;;;;9919376;29;20046;-80
2023/08/27 10:06:38;;;;;;;1.73;0.90;;;;;;;;;;9915388;29;20498;-79
2023/08/27 10:11:42;;;;;;;1.23;0.85;;;;;;;;;;9923180;29;20129;-80
2023/08/27 10:16:46;;;;;;;1.85;0.77;;;;;;;;;;9933855;29;20145;-79
2023/08/27 10:21:49;;;;;;;2.83;1.00;;;;;;;;;;9925212;29;20165;-80
2023/08/27 10:26:52;;;;;;;2.10;0.97;;;;;;;;;;9928089;29;20026;-82
2023/08/27 10:31:56;;;;;;;2.17;1.20;;;;;;;;;;9928429;29;20152;-80
2023/08/27 10:37:02;;;;;;;3.10;1.23;;;;;;;;;;9915726;29;20142;-80
2023/08/27 10:42:05;;;;;;;2.25;1.15;;;;;;;;;;9917460;29;20051;-81
2023/08/27 10:47:10;;;;;;;2.33;1.20;;;;;;;;;;9930161;29;20066;-80
2023/08/27 10:52:14;;;;;;;2.97;1.20;;;;;;;;;;9939830;29;20405;-81
2023/08/27 10:57:18;;;;;;;7.57;3.10;;;;;;;;;;9933404;29;20038;-83
2023/08/27 11:02:22;;;;;;;1.83;1.08;;;;;;;;;;9936768;29;20216;-81
2023/08/27 11:07:27;;;;;;;2.15;0.70;;;;;;;;;;9932493;29;20145;-81
2023/08/27 11:12:34;;;;;;;1.83;1.20;;;;;;;;;;9937204;29;20151;-81
2023/08/27 11:17:39;;;;;;;3.75;1.40;;;;;;;;;;9935032;29;20425;-83
2023/08/27 11:22:54;;;;;;;3.22;1.08;;;;;;;;;;9940469;29;20055;-84
2023/08/27 11:27:58;;;;;;;5.05;1.52;;;;;;;;;;9933094;29;20142;-81
2023/08/27 11:33:03;;;;;;;2.08;0.70;;;;;;;;;;9928026;29;20058;-80
2023/08/27 11:38:10;;;;;;;4.60;1.60;;;;;;;;;;9925987;29;20494;-81
2023/08/27 11:43:23;;;;;;;1.52;0.98;;;;;;;;;;9933192;29;20046;-81
2023/08/27 11:48:27;;;;;;;1.33;0.80;;;;;;;;;;9947086;29;20099;-80
2023/08/27 11:53:30;;;;;;;2.10;1.05;;;;;;;;;;9936477;29;20307;-80
2023/08/27 11:58:33;;;;;;;1.15;0.63;;;;;;;;;;9929171;29;20122;-79
2023/08/27 12:03:37;;;;;;;1.02;0.90;;;;;;;;;;9938052;29;20194;-82
2023/08/27 12:08:40;;;;;;;1.95;1.00;;;;;;;;;;9939977;29;20077;-81
2023/08/27 12:13:47;;;;;;;1.02;0.93;;;;;;;;;;9947554;29;20081;-80
2023/08/27 12:18:50;;;;;;;2.05;1.02;;;;;;;;;;9930138;29;20063;-80
2023/08/27 12:23:53;;;;;;;0.80;0.68;;;;;;;;;;9938212;29;20050;-80
2023/08/27 12:28:56;;;;;;;0.70;0.32;;;;;;;;;;9944145;29;20497;-81
2023/08/27 12:34:04;;;;;;;1.80;0.90;;;;;;;;;;9947175;29;20046;-85
2023/08/27 12:39:07;;;;;;;1.27;0.75;;;;;;;;;;9933012;29;20463;-83
2023/08/27 12:44:10;;;;;;;2.20;0.87;;;;;;;;;;9935496;29;21093;-83
2023/08/27 12:49:14;;;;;;;2.13;0.40;;;;;;;;;;9921929;29;20064;-83
2023/08/27 12:54:17;;;;;;;2.47;0.98;;;;;;;;;;9942741;29;20042;-82
2023/08/27 12:59:24;;;;;;;0.77;0.70;;;;;;;;;;9915190;29;20048;-82
2023/08/27 13:04:29;;;;;;;2.60;0.93;;;;;;;;;;9925075;29;20421;-82
2023/08/27 13:09:38;;;;;;;2.90;1.00;;;;;;;;;;9935118;29;20209;-85
2023/08/27 13:14:46;;;;;;;1.35;0.82;;;;;;;;;;9926498;29;20488;-84
2023/08/27 13:19:51;;;;;;;0.73;0.52;;;;;;;;;;9936686;29;20131;-83
2023/08/27 13:24:57;;;;;;;2.38;1.00;;;;;;;;;;9939885;29;20038;-85
2023/08/27 13:30:01;;;;;;;1.98;0.60;;;;;;;;;;9922940;29;20084;-84
2023/08/27 13:35:07;;;;;;;1.27;0.70;;;;;;;;;;9935296;29;20089;-85
2023/08/27 13:40:10;;;;;;;1.08;0.60;;;;;;;;;;9932337;29;20054;-84
2023/08/27 13:45:13;;;;;;;0.98;0.65;;;;;;;;;;9935114;29;20083;-84
2023/08/27 13:50:17;;;;;;;0.68;0.65;;;;;;;;;;9924634;29;20063;-84
2023/08/27 13:55:20;;;;;;;2.25;0.95;;;;;;;;;;9921488;29;20576;-83
2023/08/27 14:00:22;;;;;;;6.03;2.03;;;;;;;;;;9928162;29;20061;-82
2023/08/27 14:05:27;;;;;;;1.20;0.70;;;;;;;;;;9923744;29;20126;-84
2023/08/27 14:10:30;;;;;;;1.13;0.55;;;;;;;;;;9932014;29;20319;-84
2023/08/27 14:15:32;;;;;;;1.03;0.73;;;;;;;;;;9932114;29;20047;-83
2023/08/27 14:20:36;;;;;;;0.70;0.70;;;;;;;;;;9939450;29;20046;-83
2023/08/27 14:25:39;;;;;;;1.23;0.60;;;;;;;;;;9926506;29;20122;-83
2023/08/27 14:30:42;;;;;;;;;;;;;;;;;;9925990;29;20505;-83
2023/08/27 14:35:46;;;;;;;0.65;0.47;;;;;;;;;;9925362;29;19939;-84
2023/08/27 14:40:48;;;;;;;1.05;0.60;;;;;;;;;;9905457;29;20058;-84
2023/08/27 14:45:51;;;;;;;1.07;0.67;;;;;;;;;;9912654;29;20171;-84
2023/08/27 14:50:55;;;;;;;1.70;0.80;;;;;;;;;;9930274;29;20374;-84
2023/08/27 14:55:58;;;;;;;2.03;0.80;;;;;;;;;;9934047;29;20360;-84
2023/08/27 15:01:00;;;;;;;;;;;;;;;;;;9930689;29;20058;-84
2023/08/27 15:06:04;;;;;;;0.47;0.47;;;;;;;;;;9930283;29;19969;-84
2023/08/27 15:11:07;;;;;;;1.67;0.70;;;;;;;;;;9935464;29;20069;-85
2023/08/27 15:16:10;;;;;;;0.90;0.77;;;;;;;;;;9924420;29;20040;-84
2023/08/27 15:21:14;;;;;;;1.00;0.67;;;;;;;;;;9924425;29;20059;-88
2023/08/27 15:26:16;;;;;;;1.25;1.15;;;;;;;;;;9917131;29;20400;-87
2023/08/27 15:31:19;;;;;;;1.90;0.80;;;;;;;;;;9930662;29;20043;-86
2023/08/27 15:36:24;;;;;;;1.13;0.80;;;;;;;;;;9942021;29;20043;-87
2023/08/27 15:41:29;;;;;;;1.23;0.90;;;;;;;;;;9932464;29;20099;-87
2023/08/27 15:46:32;;;;;;;1.13;0.60;;;;;;;;;;9934103;29;20038;-87
2023/08/27 15:51:36;;;;;;;1.70;0.80;;;;;;;;;;9934764;29;20081;-87
2023/08/27 15:56:39;;;;;;;3.05;1.10;;;;;;;;;;9938942;29;20051;-87
2023/08/27 16:01:42;;;;;;;1.50;0.98;;;;;;;;;;9937253;29;20101;-90
2023/08/27 16:06:46;;;;;;;2.47;0.60;;;;;;;;;;9939673;29;20146;-87
2023/08/27 16:11:49;;;;;;;1.48;0.82;;;;;;;;;;9942869;29;20054;-89
2023/08/27 16:16:52;;;;;;;1.90;0.70;;;;;;;;;;9943633;29;20062;-89
2023/08/27 16:21:56;;;;;;;1.10;0.70;;;;;;;;;;9933111;29;21373;-88
2023/08/27 16:26:59;;;;;;;3.35;0.85;;;;;;;;;;9937591;29;20059;-87
2023/08/27 16:32:01;;;;;;;1.20;0.90;;;;;;;;;;9941239;29;20065;-88
2023/08/27 16:37:05;;;;;;;1.50;0.73;;;;;;;;;;9934652;29;20047;-86
2023/08/27 16:42:08;;;;;;;5.88;1.60;;;;;;;;;;9936432;29;20134;-88
2023/08/27 16:47:11;;;;;;;1.30;0.90;;;;;;;;;;9942720;29;20387;-88
2023/08/27 16:52:15;;;;;;;3.53;1.17;;;;;;;;;;9942383;29;20712;-87
2023/08/27 16:57:18;;;;;;;1.33;0.95;;;;;;;;;;9927859;29;20042;-92
2023/08/27 17:02:23;;;;;;;1.10;0.90;;;;;;;;;;9948479;29;20082;-86
2023/08/27 17:07:27;;;;;;;1.10;0.80;;;;;;;;;;9924234;29;20042;-86
2023/08/27 17:12:29;;;;;;;3.08;1.20;;;;;;;;;;9932241;29;20055;-86
2023/08/27 17:17:32;;;;;;;3.50;1.05;;;;;;;;;;9944351;29;20125;-86
2023/08/27 17:22:36;;;;;;;2.43;0.90;;;;;;;;;;9943991;29;20066;-87
2023/08/27 17:27:39;;;;;;;2.75;1.00;;;;;;;;;;9933735;29;20062;-85
2023/08/27 17:32:41;;;;;;;2.60;1.07;;;;;;;;;;9949216;29;20134;-87
2023/08/27 17:37:45;;;;;;;1.43;0.83;;;;;;;;;;9944911;29;20047;-86
2023/08/27 17:42:48;;;;;;;2.17;1.23;;;;;;;;;;9940605;29;20055;-85
2023/08/27 17:48:04;;;;;;;1.48;0.88;;;;;;;;;;9941191;29;20099;-85
2023/08/27 17:53:08;;;;;;;2.38;1.00;;;;;;;;;;9943350;29;20050;-86
2023/08/27 17:58:11;;;;;;;2.45;0.88;;;;;;;;;;9934413;29;20058;-87
2023/08/27 18:03:13;;;;;;;1.00;0.90;;;;;;;;;;9940235;29;20169;-87
2023/08/27 18:08:19;;;;;;;2.27;1.10;;;;;;;;;;9936745;29;20969;-86
2023/08/27 18:13:22;;;;;;;2.25;1.00;;;;;;;;;;9931655;29;20061;-86
2023/08/27 18:18:25;;;;;;;1.35;1.08;;;;;;;;;;9932579;29;20054;-87
2023/08/27 18:23:29;;;;;;;1.13;0.83;;;;;;;;;;9924385;29;20540;-86
2023/08/27 18:28:32;;;;;;;2.65;1.05;;;;;;;;;;9935067;29;20124;-87
2023/08/27 18:33:34;;;;;;;3.00;1.07;;;;;;;;;;9929111;29;20443;-87
2023/08/27 18:38:38;;;;;;;2.17;1.10;;;;;;;;;;9930586;29;20075;-86
2023/08/27 18:43:41;;;;;;;2.22;0.90;;;;;;;;;;9931468;29;20059;-88
2023/08/27 18:48:44;;;;;;;4.87;1.40;;;;;;;;;;9932486;29;20135;-88
2023/08/27 18:53:48;;;;;;;2.77;1.10;;;;;;;;;;9919098;29;20146;-88
2023/08/27 18:58:50;;;;;;;2.53;0.85;;;;;;;;;;9924166;29;20700;-87
2023/08/27 19:03:54;;;;;;;2.13;1.03;;;;;;;;;;9914118;29;20043;-85
2023/08/27 19:08:58;;;;;;;1.20;0.80;;;;;;;;;;9926951;29;20042;-87
2023/08/27 19:14:01;;;;;;;2.25;0.93;;;;;;;;;;9929461;29;20125;-88
2023/08/27 19:19:09;;;;;;;1.77;1.05;;;;;;;;;;9936422;29;20062;-88
2023/08/27 19:24:18;;;;;;;1.17;0.77;;;;;;;;;;9935956;29;20047;-86
2023/08/27 19:29:31;;;;;;;5.72;1.20;;;;;;;;;;9925309;29;20538;-89
2023/08/27 19:34:36;;;;;;;3.13;1.38;;;;;;;;;;9930579;29;20417;-88
2023/08/27 19:39:44;;;;;;;1.95;0.80;;;;;;;;;;9925184;29;20047;-88
2023/08/27 19:44:51;;;;;;;3.45;0.60;;;;;;;;;;9930553;29;20081;-88
2023/08/27 19:49:54;;;;;;;3.90;1.70;;;;;;;;;;9920539;29;20046;-87
2023/08/27 19:55:07;;;;;;;1.65;1.17;;;;;;;;;;9906013;29;20437;-89
2023/08/27 20:00:12;;;;;;;0.90;0.68;;;;;;;;;;9943540;29;20038;-89
2023/08/27 20:05:20;;;;;;;1.58;0.90;;;;;;;;;;9930759;29;20153;-87
2023/08/27 20:10:31;;;;;;;3.92;1.10;;;;;;;;;;9924948;29;20066;-88
2023/08/27 20:15:40;;;;;;;1.52;0.75;;;;;;;;;;9937288;29;20711;-88
2023/08/27 20:20:48;;;;;;;2.05;0.90;;;;;;;;;;9924301;29;20493;-90
2023/08/27 20:25:58;;;;;;;2.58;1.42;;;;;;;;;;9944527;29;20055;-88
2023/08/27 20:31:07;;;;;;;2.42;1.17;;;;;;;;;;9932701;29;20054;-89
2023/08/27 20:36:13;;;;;;;1.83;1.10;;;;;;;;;;9926874;29;20221;-87
2023/08/27 20:41:23;;;;;;;1.17;0.88;;;;;;;;;;9943617;29;20130;-90
2023/08/27 20:52:16;;;;;;;1.13;0.93;;;;;;;;;;9949994;29;20481;-90
2023/08/27 20:57:22;;;;;;;1.35;0.98;;;;;;;;;;9941889;29;20046;-90
2023/08/27 21:02:28;;;;;;;2.28;1.10;;;;;;;;;;9936561;29;20060;-91
2023/08/27 21:07:39;;;;;;;3.17;1.00;;;;;;;;;;9924173;29;20078;-91
2023/08/27 21:12:52;;;;;;;3.72;1.35;;;;;;;;;;9946029;29;20042;-91
2023/08/27 21:17:55;;;;;;;1.40;0.93;;;;;;;;;;9928263;29;20146;-89
2023/08/27 21:23:00;;;;;;;2.00;1.15;;;;;;;;;;9932510;29;20042;-87
2023/08/27 21:28:10;;;;;;;0.68;0.60;;;;;;;;;;9930554;29;20073;-88
2023/08/27 21:33:16;;;;;;;1.95;1.00;;;;;;;;;;9941743;29;20533;-89
2023/08/27 21:38:28;;;;;;;4.68;0.95;;;;;;;;;;9941698;29;20415;-87
2023/08/27 21:43:35;;;;;;;1.77;0.90;;;;;;;;;;9934305;29;20054;-89
2023/08/27 21:48:39;;;;;;;1.63;1.00;;;;;;;;;;9933442;29;20054;-89
2023/08/27 21:53:43;;;;;;;2.35;0.80;;;;;;;;;;9943580;29;20057;-91
2023/08/27 21:58:52;;;;;;;2.88;1.10;;;;;;;;;;9942307;29;20096;-92
2023/08/27 22:03:58;;;;;;;3.28;1.05;;;;;;;;;;9922347;29;20363;-92
2023/08/27 22:09:05;;;;;;;1.40;0.90;;;;;;;;;;9930030;29;20038;-90
2023/08/27 22:14:15;;;;;;;2.08;1.13;;;;;;;;;;9924967;29;20458;-92
2023/08/27 22:19:22;;;;;;;1.83;1.00;;;;;;;;;;9946014;29;20105;-92
2023/08/27 22:24:26;;;;;;;3.17;1.30;;;;;;;;;;9947070;29;20054;-92
2023/08/27 22:29:30;;;;;;;;;;;;;;;;;;9946529;29;20034;-91
2023/08/27 22:34:36;;;;;;;0.45;0.45;;;;;;;;;;9927809;29;19925;-91
2023/08/27 22:39:39;;;;;;;0.73;0.65;;;;;;;;;;9946045;29;20153;-91
2023/08/27 22:44:43;;;;;;;3.22;0.93;;;;;;;;;;9942179;29;20406;-91
2023/08/27 22:49:49;;;;;;;3.60;1.40;;;;;;;;;;9943577;29;20043;-92
2023/08/27 22:54:55;;;;;;;2.17;1.27;;;;;;;;;;9946664;29;20047;-91
2023/08/27 23:00:00;;;;;;;0.80;0.52;;;;;;;;;;9941839;29;20050;-92
2023/08/27 23:05:09;;;;;;;2.00;1.02;;;;;;;;;;9938029;29;20055;-89
2023/08/27 23:10:13;;;;;;;1.98;1.02;;;;;;;;;;9940615;29;20062;-90
2023/08/27 23:15:30;;;;;;;1.65;0.90;;;;;;;;;;9950512;29;20046;-91
2023/08/27 23:20:40;;;;;;;2.97;1.30;;;;;;;;;;9940085;29;20046;-91
2023/08/27 23:25:48;;;;;;;2.47;1.27;;;;;;;;;;9935213;29;20560;-90
2023/08/27 23:30:57;;;;;;;1.55;0.57;;;;;;;;;;9932721;29;20281;-94
2023/08/27 23:36:04;;;;;;;2.42;1.45;;;;;;;;;;9940361;29;20066;-89
2023/08/27 23:41:10;;;;;;;2.60;1.50;;;;;;;;;;9922286;29;20051;-88
2023/08/27 23:46:14;;;;;;;3.30;1.63;;;;;;;;;;9930259;29;20111;-88
2023/08/27 23:51:20;;;;;;;2.90;1.35;;;;;;;;;;9923311;29;20475;-87
2023/08/27 23:56:27;;;;;;;2.92;1.60;;;;;;;;;;9926751;29;20142;-87
